Zanoni, Missouri
Current Conditions -  °F | °C
As of 8:53 PM on Wednesday 26 Nov 2014 (Local Time) from KBPK Reporting Station
Clear Clear  
Wind Chill: 33°   Ceiling: Unl
Heat Index: 40°   Visibility: 10mi
Dew Point: 26°   Wind: 12mph
Humidity: 58%   Direction: 310°NW
Pressure: 30.18"   Gusts: 25mph
Location:  36.69°N, 92.33°W
Report Text: KBPK 270253Z AUTO 31010G22KT 280V340 10SM CLR 04/M03 A3018 RMK AO2 PK WND 32026/0157 SLP224 T00441033 53028
Loading
Personal Weather Stations






























Interactive Weather Map New forecast layout! Learn more

10-Day Weather Forecast

Advertisements
Track Severe Weather on mobile